createdAt,value
2017-05-25T00:00:17.519Z,10.71
2017-05-25T00:01:17.824Z,10.73
2017-05-25T00:02:17.810Z,10.73
2017-05-25T00:03:17.800Z,10.76
2017-05-25T00:04:17.793Z,10.7
2017-05-25T00:05:17.787Z,10.66
2017-05-25T00:06:17.778Z,10.66
2017-05-25T00:07:17.769Z,10.55
2017-05-25T00:08:17.766Z,10.66
2017-05-25T00:09:17.758Z,10.6
2017-05-25T00:10:17.749Z,10.59
2017-05-25T00:11:17.791Z,10.64
2017-05-25T00:12:17.731Z,10.53
2017-05-25T00:13:17.730Z,10.48
2017-05-25T00:14:17.725Z,10.59
2017-05-25T00:15:17.712Z,10.48
2017-05-25T00:16:17.703Z,10.53
2017-05-25T00:17:17.696Z,10.45
2017-05-25T00:18:17.689Z,10.42
2017-05-25T00:19:17.684Z,10.47
2017-05-25T00:20:17.674Z,10.52
2017-05-25T00:21:17.363Z,10.45
2017-05-25T00:22:17.657Z,10.41
2017-05-25T00:23:17.652Z,10.42
2017-05-25T00:24:17.644Z,10.4
2017-05-25T00:25:17.635Z,10.38
2017-05-25T00:26:17.630Z,10.42
2017-05-25T00:27:17.323Z,10.42
2017-05-25T00:28:17.616Z,10.33
2017-05-25T00:29:17.307Z,10.25
2017-05-25T00:30:17.595Z,10.32
2017-05-25T00:31:17.591Z,10.3
2017-05-25T00:32:17.590Z,10.32
2017-05-25T00:33:17.573Z,10.23
2017-05-25T00:34:17.263Z,10.25
2017-05-25T00:35:17.621Z,10.2
2017-05-25T00:36:17.556Z,10.18
2017-05-25T00:37:17.545Z,10.26
2017-05-25T00:38:17.537Z,10.18
2017-05-25T00:39:17.527Z,10.25
2017-05-25T00:40:17.521Z,10.18
2017-05-25T00:41:17.512Z,10.14
2017-05-25T00:42:17.509Z,10.2
2017-05-25T00:43:17.498Z,10.22
2017-05-25T00:44:17.491Z,10.11
2017-05-25T00:45:17.483Z,10.12
2017-05-25T00:46:17.476Z,10.09
2017-05-25T00:47:17.465Z,10.07
2017-05-25T00:48:17.460Z,10.14
2017-05-25T00:49:17.402Z,10.04
2017-05-25T00:50:17.442Z,10.05
2017-05-25T00:51:17.131Z,10.07
2017-05-25T00:52:17.125Z,10.09
2017-05-25T00:53:17.417Z,10.04
2017-05-25T00:54:17.712Z,10.09
2017-05-25T00:55:17.405Z,10.05
2017-05-25T00:56:17.396Z,10.02
2017-05-25T00:57:17.392Z,10.04
2017-05-25T00:58:17.382Z,10.08
2017-05-25T00:59:17.625Z,9.96
2017-05-25T01:00:17.365Z,10.07
2017-05-25T01:01:17.358Z,10.04
2017-05-25T01:02:17.358Z,9.96
2017-05-25T01:03:17.038Z,9.99
2017-05-25T01:04:17.285Z,10.02
2017-05-25T01:05:17.022Z,9.9
2017-05-25T01:06:17.316Z,9.9
2017-05-25T01:07:17.005Z,9.83
2017-05-25T01:08:16.694Z,9.9
2017-05-25T01:09:17.596Z,9.89
2017-05-25T01:10:17.287Z,9.86
2017-05-25T01:11:17.277Z,9.87
2017-05-25T01:12:17.270Z,9.87
2017-05-25T01:13:17.262Z,9.81
2017-05-25T01:14:16.900Z,9.81
2017-05-25T01:15:17.247Z,9.79
2017-05-25T01:16:17.239Z,9.83
2017-05-25T01:17:17.231Z,9.79
2017-05-25T01:18:17.223Z,9.74
2017-05-25T01:19:17.521Z,9.74
2017-05-25T01:20:17.205Z,9.83
2017-05-25T01:21:16.897Z,9.69
2017-05-25T01:22:17.189Z,9.69
2017-05-25T01:23:17.185Z,9.72
2017-05-25T01:24:17.425Z,9.75
2017-05-25T01:25:17.169Z,9.75
2017-05-25T01:26:17.166Z,9.71
2017-05-25T01:27:17.150Z,9.66
2017-05-25T01:28:17.145Z,9.72
2017-05-25T01:29:17.384Z,9.66
2017-05-25T01:30:16.825Z,9.72
2017-05-25T01:31:17.117Z,9.72
2017-05-25T01:32:17.112Z,9.72
2017-05-25T01:33:17.103Z,9.65
2017-05-25T01:34:17.349Z,9.66
2017-05-25T01:35:17.085Z,9.66
2017-05-25T01:36:17.078Z,9.61
2017-05-25T01:37:17.068Z,9.61
2017-05-25T01:38:17.079Z,9.65
2017-05-25T01:39:17.307Z,9.58
2017-05-25T01:40:17.043Z,9.58
2017-05-25T01:41:17.034Z,9.61
2017-05-25T01:42:17.028Z,9.54
2017-05-25T01:43:17.021Z,9.5
2017-05-25T01:44:17.314Z,9.5
2017-05-25T01:45:17.002Z,9.5
2017-05-25T01:46:16.998Z,9.47
2017-05-25T01:47:16.987Z,9.48
2017-05-25T01:48:16.979Z,9.48
2017-05-25T01:49:17.223Z,9.5
2017-05-25T01:50:16.961Z,9.48
2017-05-25T01:51:16.952Z,9.46
2017-05-25T01:52:16.644Z,9.48
2017-05-25T01:53:16.939Z,9.4
2017-05-25T01:54:17.284Z,9.43
2017-05-25T01:55:16.923Z,9.38
2017-05-25T01:56:16.609Z,9.47
2017-05-25T01:57:16.903Z,9.46
2017-05-25T01:58:16.898Z,9.5
2017-05-25T01:59:17.144Z,9.47
2017-05-25T02:00:16.880Z,9.36
2017-05-25T02:01:16.872Z,9.38
2017-05-25T02:02:16.863Z,9.35
2017-05-25T02:03:16.855Z,9.38
2017-05-25T02:04:17.150Z,9.33
2017-05-25T02:05:16.843Z,9.4
2017-05-25T02:06:16.833Z,9.35
2017-05-25T02:07:16.823Z,9.42
2017-05-25T02:08:16.819Z,9.32
2017-05-25T02:09:17.057Z,9.32
2017-05-25T02:10:16.803Z,9.35
2017-05-25T02:11:16.787Z,9.24
2017-05-25T02:12:16.780Z,9.33
2017-05-25T02:13:16.772Z,9.31
2017-05-25T02:14:17.137Z,9.28
2017-05-25T02:15:16.755Z,9.31
2017-05-25T02:16:16.444Z,9.29
2017-05-25T02:17:16.435Z,9.26
2017-05-25T02:18:16.728Z,9.26
2017-05-25T02:19:16.667Z,9.23
2017-05-25T02:20:16.716Z,9.2
2017-05-25T02:21:16.706Z,9.15
2017-05-25T02:22:16.696Z,9.18
2017-05-25T02:23:16.690Z,9.18
2017-05-25T02:24:16.932Z,9.23
2017-05-25T02:25:16.373Z,9.18
2017-05-25T02:26:16.663Z,9.18
2017-05-25T02:27:16.658Z,9.18
2017-05-25T02:28:16.345Z,9.23
2017-05-25T02:29:16.686Z,9.21
2017-05-25T02:30:16.630Z,9.2
2017-05-25T02:31:16.622Z,9.15
2017-05-25T02:32:16.645Z,9.18
2017-05-25T02:33:16.604Z,9.15
2017-05-25T02:34:16.846Z,9.15
2017-05-25T02:35:16.585Z,9.08
2017-05-25T02:36:16.579Z,9.08
2017-05-25T02:37:16.572Z,9.04
2017-05-25T02:38:16.561Z,9.1
2017-05-25T02:39:16.802Z,9.08
2017-05-25T02:40:16.544Z,9.04
2017-05-25T02:41:16.537Z,9.02
2017-05-25T02:42:16.527Z,9.04
2017-05-25T02:43:16.216Z,9.01
2017-05-25T02:44:16.762Z,8.99
2017-05-25T02:45:16.200Z,9.04
2017-05-25T02:46:16.190Z,9.05
2017-05-25T02:47:16.489Z,9.02
2017-05-25T02:48:16.481Z,9.08
2017-05-25T02:49:16.734Z,9.01
2017-05-25T02:50:16.461Z,9.01
2017-05-25T02:51:16.450Z,8.99
2017-05-25T02:52:16.448Z,9.11
2017-05-25T02:53:16.433Z,8.99
2017-05-25T02:54:16.725Z,9.04
2017-05-25T02:55:16.415Z,9.05
2017-05-25T02:56:16.109Z,9.02
2017-05-25T02:57:16.400Z,9.01
2017-05-25T02:58:16.393Z,9.11
2017-05-25T02:59:16.682Z,9.1
2017-05-25T03:00:16.072Z,9.15
2017-05-25T03:01:16.366Z,9.08
2017-05-25T03:02:16.358Z,9.13
2017-05-25T03:03:16.347Z,9.13
2017-05-25T03:04:16.591Z,9.13
2017-05-25T03:05:16.332Z,9.18
2017-05-25T03:06:16.325Z,9.14
2017-05-25T03:07:16.317Z,9.08
2017-05-25T03:08:16.304Z,9.14
2017-05-25T03:09:16.549Z,9.18
2017-05-25T03:10:16.289Z,9.23
2017-05-25T03:11:16.280Z,9.26
2017-05-25T03:12:16.272Z,9.17
2017-05-25T03:13:16.262Z,9.15
2017-05-25T03:14:16.556Z,9.26
2017-05-25T03:15:15.944Z,9.28
2017-05-25T03:16:16.241Z,9.24
2017-05-25T03:17:15.928Z,9.33
2017-05-25T03:18:16.223Z,9.32
2017-05-25T03:19:16.462Z,9.32
2017-05-25T03:20:16.206Z,9.35
2017-05-25T03:21:16.254Z,9.47
2017-05-25T03:22:16.189Z,9.4
2017-05-25T03:23:15.877Z,9.46
2017-05-25T03:24:16.420Z,9.47
2017-05-25T03:25:16.163Z,9.58
2017-05-25T03:26:16.157Z,9.61
2017-05-25T03:27:16.149Z,9.65
2017-05-25T03:28:15.834Z,9.6
2017-05-25T03:29:16.429Z,9.68
2017-05-25T03:30:16.121Z,9.79
2017-05-25T03:31:16.116Z,9.93
2017-05-25T03:32:16.108Z,9.9
2017-05-25T03:33:16.097Z,9.99
2017-05-25T03:34:16.094Z,10.02
2017-05-25T03:35:16.081Z,10.11
2017-05-25T03:36:16.072Z,10.23
2017-05-25T03:37:16.070Z,10.34
2017-05-25T03:38:16.070Z,10.33
2017-05-25T03:39:15.748Z,10.45
2017-05-25T03:40:15.737Z,10.66
2017-05-25T03:41:16.036Z,10.73
2017-05-25T03:42:15.727Z,10.96
2017-05-25T03:43:16.021Z,11.06
2017-05-25T03:44:16.014Z,11.32
2017-05-25T03:45:16.007Z,11.46
2017-05-25T03:46:16.007Z,11.54
2017-05-25T03:47:15.991Z,11.82
2017-05-25T03:48:15.987Z,11.98
2017-05-25T03:49:15.984Z,12.07
2017-05-25T03:50:15.667Z,12.32
2017-05-25T03:51:15.964Z,12.52
2017-05-25T03:52:15.962Z,12.72
2017-05-25T03:53:15.957Z,12.93
2017-05-25T03:54:15.947Z,13.12
2017-05-25T03:55:15.942Z,13.29
2017-05-25T03:56:15.940Z,13.57
2017-05-25T03:57:15.932Z,13.73
2017-05-25T03:58:15.927Z,14.07
2017-05-25T03:59:15.921Z,14.25
2017-05-25T04:00:15.916Z,14.46
2017-05-25T04:01:15.911Z,14.6
2017-05-25T04:02:15.910Z,14.89
2017-05-25T04:03:15.901Z,15.09
2017-05-25T04:04:15.896Z,15.35
2017-05-25T04:05:15.894Z,15.41
2017-05-25T04:06:15.892Z,15.65
2017-05-25T04:07:15.582Z,15.8
2017-05-25T04:08:15.882Z,15.96
2017-05-25T04:09:15.885Z,16.15
2017-05-25T04:10:15.872Z,16.31
2017-05-25T04:11:15.872Z,16.39
2017-05-25T04:12:15.565Z,16.58
2017-05-25T04:13:15.866Z,16.64
2017-05-25T04:14:15.861Z,16.71
2017-05-25T04:15:15.857Z,16.89
2017-05-25T04:16:15.856Z,16.91
2017-05-25T04:17:15.856Z,17
2017-05-25T04:18:15.853Z,17.08
2017-05-25T04:19:15.848Z,17.23
2017-05-25T04:20:15.843Z,17.43
2017-05-25T04:21:15.847Z,17.62
2017-05-25T04:22:15.839Z,17.84
2017-05-25T04:23:15.839Z,18.03
2017-05-25T04:24:15.835Z,18.27
2017-05-25T04:25:15.833Z,18.54
2017-05-25T04:26:15.528Z,18.75
2017-05-25T04:27:15.829Z,19.02
2017-05-25T04:28:15.829Z,19.33
2017-05-25T04:29:15.832Z,19.56
2017-05-25T04:30:15.831Z,19.77
2017-05-25T04:31:15.831Z,20.05
2017-05-25T04:32:15.829Z,20.21
2017-05-25T04:33:15.831Z,20.52
2017-05-25T04:34:15.830Z,20.72
2017-05-25T04:35:15.827Z,20.98
2017-05-25T04:36:15.829Z,21.13
2017-05-25T04:37:15.829Z,21.25
2017-05-25T04:38:15.859Z,21.49
2017-05-25T04:39:15.836Z,21.86
2017-05-25T04:40:15.833Z,22.03
2017-05-25T04:41:15.836Z,22.22
2017-05-25T04:42:15.840Z,22.55
2017-05-25T04:43:15.840Z,22.75
2017-05-25T04:44:15.847Z,22.9
2017-05-25T04:45:15.847Z,23.09
2017-05-25T04:46:15.851Z,23.28
2017-05-25T04:47:15.856Z,23.48
2017-05-25T04:48:15.554Z,23.61
2017-05-25T04:49:15.861Z,23.91
2017-05-25T04:50:15.867Z,24.16
2017-05-25T04:51:15.869Z,24.28
2017-05-25T04:52:15.570Z,24.47
2017-05-25T04:53:15.879Z,24.76
2017-05-25T04:54:15.884Z,24.98
2017-05-25T04:55:15.890Z,25.15
2017-05-25T04:56:15.895Z,25.35
2017-05-25T04:57:15.900Z,25.46
2017-05-25T04:58:15.906Z,25.65
2017-05-25T04:59:15.910Z,25.76
2017-05-25T05:00:15.993Z,26.01
2017-05-25T05:01:15.923Z,26.07
2017-05-25T05:02:15.932Z,26.2
2017-05-25T05:03:15.939Z,26.37
2017-05-25T05:04:15.641Z,26.43
2017-05-25T05:05:15.951Z,26.55
2017-05-25T05:06:15.956Z,26.85
2017-05-25T05:07:15.963Z,26.94
2017-05-25T05:08:15.974Z,27.03
2017-05-25T05:09:15.983Z,27.25
2017-05-25T05:10:15.984Z,27.43
2017-05-25T05:11:15.994Z,27.59
2017-05-25T05:12:16.005Z,27.72
2017-05-25T05:13:16.011Z,27.85
2017-05-25T05:14:16.016Z,28.02
2017-05-25T05:15:16.274Z,28.12
2017-05-25T05:16:16.032Z,28.21
2017-05-25T05:17:16.041Z,28.51
2017-05-25T05:18:16.051Z,28.56
2017-05-25T05:19:16.058Z,28.81
2017-05-25T05:20:16.316Z,28.9
2017-05-25T05:21:16.075Z,29.04
2017-05-25T05:22:16.084Z,29.26
2017-05-25T05:23:16.096Z,29.37
2017-05-25T05:24:15.800Z,29.48
2017-05-25T05:25:16.414Z,29.63
2017-05-25T05:26:16.120Z,29.71
2017-05-25T05:27:16.133Z,29.95
2017-05-25T05:28:16.143Z,30
2017-05-25T05:29:16.152Z,30.1
2017-05-25T05:30:16.408Z,30.42
2017-05-25T05:31:16.169Z,30.55
2017-05-25T05:32:16.182Z,30.72
2017-05-25T05:33:16.193Z,30.8
2017-05-25T05:34:16.201Z,30.89
2017-05-25T05:35:16.511Z,30.94
2017-05-25T05:36:16.221Z,30.99
2017-05-25T05:37:16.231Z,30.92
2017-05-25T05:38:15.937Z,30.83
2017-05-25T05:39:16.257Z,30.91
2017-05-25T05:40:16.513Z,30.86
2017-05-25T05:41:16.272Z,30.69
2017-05-25T05:42:16.289Z,30.7
2017-05-25T05:43:16.294Z,30.73
2017-05-25T05:44:16.002Z,30.7
2017-05-25T05:45:16.568Z,30.75
2017-05-25T05:46:16.328Z,30.75
2017-05-25T05:47:16.037Z,30.82
2017-05-25T05:48:16.350Z,30.8
2017-05-25T05:49:16.361Z,30.83
2017-05-25T05:50:16.675Z,30.84
2017-05-25T05:51:16.082Z,31.07
2017-05-25T05:52:16.091Z,31.25
2017-05-25T05:53:16.408Z,31.35
2017-05-25T05:54:16.138Z,31.53
2017-05-25T05:55:16.682Z,31.7
2017-05-25T05:56:16.141Z,31.92
2017-05-25T05:57:16.454Z,32.07
2017-05-25T05:58:16.464Z,32.19
2017-05-25T05:59:16.475Z,32.28
2017-05-25T06:00:16.741Z,32.51
2017-05-25T06:01:16.500Z,32.52
2017-05-25T06:02:16.514Z,32.62
2017-05-25T06:03:16.526Z,32.63
2017-05-25T06:04:16.546Z,32.56
2017-05-25T06:05:16.850Z,32.67
2017-05-25T06:06:16.562Z,32.81
2017-05-25T06:07:16.576Z,32.77
2017-05-25T06:08:16.592Z,32.85
2017-05-25T06:09:16.604Z,32.88
2017-05-25T06:10:16.559Z,32.97
2017-05-25T06:11:16.627Z,33.14
2017-05-25T06:12:16.341Z,33.29
2017-05-25T06:13:16.353Z,33.37
2017-05-25T06:14:16.666Z,33.44
2017-05-25T06:15:16.981Z,33.45
2017-05-25T06:16:16.693Z,33.57
2017-05-25T06:17:16.418Z,33.59
2017-05-25T06:18:16.727Z,33.59
2017-05-25T06:19:16.740Z,33.59
2017-05-25T06:20:17.100Z,33.69
2017-05-25T06:21:16.766Z,33.88
2017-05-25T06:22:16.475Z,33.97
2017-05-25T06:23:16.490Z,34.17
2017-05-25T06:24:16.503Z,34.31
2017-05-25T06:25:16.770Z,34.44
2017-05-25T06:26:16.535Z,34.54
2017-05-25T06:27:16.922Z,34.49
2017-05-25T06:28:16.561Z,34.62
2017-05-25T06:29:16.578Z,34.58
2017-05-25T06:30:16.848Z,34.53
2017-05-25T06:31:16.912Z,34.62
2017-05-25T06:32:16.626Z,34.52
2017-05-25T06:33:16.641Z,34.69
2017-05-25T06:34:16.652Z,34.81
2017-05-25T06:35:16.920Z,34.8
2017-05-25T06:36:16.691Z,34.84
2017-05-25T06:37:16.704Z,34.85
2017-05-25T06:38:16.728Z,34.91
2017-05-25T06:39:17.041Z,35.07
2017-05-25T06:40:17.356Z,35.18
2017-05-25T06:41:17.070Z,35.21
2017-05-25T06:42:17.088Z,35.09
2017-05-25T06:43:17.105Z,34.92
2017-05-25T06:44:17.121Z,34.81
2017-05-25T06:45:17.383Z,34.87
2017-05-25T06:46:17.150Z,34.8
2017-05-25T06:47:17.168Z,34.84
2017-05-25T06:48:17.184Z,34.85
2017-05-25T06:49:17.198Z,35.03
2017-05-25T06:50:16.607Z,35.19
2017-05-25T06:51:17.232Z,35.15
2017-05-25T06:52:16.946Z,35.15
2017-05-25T06:53:16.957Z,35.21
2017-05-25T06:54:17.278Z,35.25
2017-05-25T06:55:16.990Z,35.38
2017-05-25T06:56:17.006Z,35.48
2017-05-25T06:57:17.333Z,35.5
2017-05-25T06:58:17.042Z,35.45
2017-05-25T06:59:17.054Z,35.33
2017-05-25T07:00:17.072Z,35.38
2017-05-25T07:01:17.085Z,35.48
2017-05-25T07:02:17.103Z,35.33
2017-05-25T07:03:17.420Z,35.26
2017-05-25T07:04:17.436Z,35.25
2017-05-25T07:05:17.154Z,35.11
2017-05-25T07:06:17.163Z,34.92
2017-05-25T07:07:17.177Z,34.81
2017-05-25T07:08:17.195Z,34.89
2017-05-25T07:09:16.905Z,34.92
2017-05-25T07:10:17.525Z,34.78
2017-05-25T07:11:16.934Z,34.62
2017-05-25T07:12:17.253Z,34.42
2017-05-25T07:13:17.570Z,34
2017-05-25T07:14:17.282Z,33.72
2017-05-25T07:15:17.602Z,33.69
2017-05-25T07:16:17.310Z,33.56
2017-05-25T07:17:17.329Z,33.56
2017-05-25T07:18:17.685Z,33.45
2017-05-25T07:19:17.662Z,33.34
2017-05-25T07:20:17.674Z,33.16
2017-05-25T07:21:17.723Z,33.06
2017-05-25T07:22:17.713Z,32.89
2017-05-25T07:23:17.718Z,33.09
2017-05-25T07:24:17.734Z,33.42
2017-05-25T07:25:17.748Z,33.84
2017-05-25T07:26:17.775Z,34.12
2017-05-25T07:27:17.773Z,34.44
2017-05-25T07:28:17.486Z,34.87
2017-05-25T07:29:17.806Z,35.26
2017-05-25T07:30:17.518Z,35.45
2017-05-25T07:31:17.838Z,35.4
2017-05-25T07:32:17.855Z,35.25
2017-05-25T07:33:17.869Z,35.34
2017-05-25T07:34:17.582Z,35.43
2017-05-25T07:35:17.899Z,35.53
2017-05-25T07:36:17.611Z,35.77
2017-05-25T07:37:17.930Z,35.99
2017-05-25T07:38:17.949Z,36.19
2017-05-25T07:39:17.995Z,36.35
2017-05-25T07:40:17.981Z,36.28
2017-05-25T07:41:17.998Z,36
2017-05-25T07:42:18.019Z,36
2017-05-25T07:43:18.033Z,35.99
2017-05-25T07:44:18.047Z,35.89
2017-05-25T07:45:17.763Z,35.9
2017-05-25T07:46:18.084Z,35.94
2017-05-25T07:47:18.100Z,35.9
2017-05-25T07:48:18.123Z,35.93
2017-05-25T07:49:18.145Z,35.85
2017-05-25T07:50:18.151Z,35.93
2017-05-25T07:51:18.170Z,36.01
2017-05-25T07:52:18.191Z,36.08
2017-05-25T07:53:18.207Z,36.12
2017-05-25T07:54:18.227Z,36.31
2017-05-25T07:55:18.246Z,36.31
2017-05-25T07:56:18.258Z,36.34
2017-05-25T07:57:18.280Z,36.28
2017-05-25T07:58:18.299Z,36.05
2017-05-25T07:59:18.011Z,35.81
2017-05-25T08:00:18.331Z,35.68
2017-05-25T08:01:18.049Z,35.72
2017-05-25T08:02:18.367Z,35.62
2017-05-25T08:03:18.384Z,35.47
2017-05-25T08:04:18.408Z,35.37
2017-05-25T08:23:21.410Z,33.72
2017-05-25T08:24:18.745Z,33.68
2017-05-25T08:25:18.163Z,33.42
2017-05-25T08:26:18.781Z,33.29
2017-05-25T08:27:18.489Z,32.92
2017-05-25T08:28:18.506Z,32.7
2017-05-25T08:29:18.522Z,32.25
2017-05-25T08:30:18.843Z,31.92
2017-05-25T08:31:18.250Z,31.63
2017-05-25T08:32:18.884Z,31.23
2017-05-25T08:33:18.889Z,31.07
2017-05-25T08:34:18.904Z,31.06
2017-05-25T08:35:18.922Z,30.88
2017-05-25T08:36:18.935Z,30.51
2017-05-25T08:37:18.951Z,30.11
2017-05-25T08:38:18.361Z,29.8
2017-05-25T08:39:19.288Z,29.58
2017-05-25T08:40:18.995Z,29.12
2017-05-25T08:41:19.010Z,28.67
2017-05-25T08:42:19.032Z,28.48
2017-05-25T08:43:19.036Z,28.39
2017-05-25T08:44:19.298Z,28.19
2017-05-25T08:45:18.759Z,28.12
2017-05-25T08:46:19.077Z,28.03
2017-05-25T08:47:19.090Z,27.84
2017-05-25T08:48:19.102Z,27.62
2017-05-25T08:49:19.465Z,27.36
2017-05-25T08:50:18.820Z,27.02
2017-05-25T08:51:19.135Z,26.76
2017-05-25T08:52:18.841Z,26.6
2017-05-25T08:53:18.851Z,26.18
2017-05-25T08:54:19.414Z,25.87
2017-05-25T08:55:18.871Z,25.42
2017-05-25T08:56:18.883Z,25.21
2017-05-25T08:57:18.889Z,24.95
2017-05-25T08:58:18.600Z,24.64
2017-05-25T08:59:19.159Z,24.52
2017-05-25T09:00:18.918Z,24.42
2017-05-25T09:01:19.227Z,24.24
2017-05-25T09:02:18.628Z,24.16
2017-05-25T09:03:18.943Z,24.16
2017-05-25T09:04:19.560Z,24.06
2017-05-25T09:05:19.258Z,24.12
2017-05-25T09:06:18.959Z,24.1
2017-05-25T09:07:19.272Z,24.08
2017-05-25T09:08:18.972Z,24.1
2017-05-25T09:09:19.539Z,24.12
2017-05-25T09:10:18.984Z,24.13
2017-05-25T09:11:19.290Z,24.1
2017-05-25T09:12:19.298Z,24.12
2017-05-25T09:13:19.303Z,24.1
2017-05-25T09:14:19.254Z,24.08
2017-05-25T09:15:19.010Z,24.12
2017-05-25T09:16:19.321Z,24.09
2017-05-25T09:17:19.338Z,24.15
2017-05-25T09:18:19.329Z,24.18
2017-05-25T09:19:19.277Z,24.27
2017-05-25T09:20:19.034Z,24.32
2017-05-25T09:21:19.338Z,24.39
2017-05-25T09:22:19.343Z,24.42
2017-05-25T09:23:19.349Z,24.55
2017-05-25T09:24:19.605Z,24.47
2017-05-25T09:25:19.363Z,24.45
2017-05-25T09:26:19.058Z,24.35
2017-05-25T09:27:19.365Z,24.35
2017-05-25T09:28:19.373Z,24.43
2017-05-25T09:29:19.626Z,24.35
2017-05-25T09:30:19.377Z,24.39
2017-05-25T09:31:19.381Z,24.31
2017-05-25T09:32:20.398Z,24.18
2017-05-25T09:33:19.392Z,24.13
2017-05-25T09:34:19.087Z,24.1
2017-05-25T09:35:19.092Z,24.06
2017-05-25T09:36:19.407Z,23.98
2017-05-25T09:37:19.103Z,24
2017-05-25T09:38:19.104Z,24
2017-05-25T09:39:19.156Z,23.79
2017-05-25T09:40:19.114Z,23.68
2017-05-25T09:41:19.116Z,23.6
2017-05-25T09:42:19.419Z,23.68
2017-05-25T09:43:19.122Z,23.73
2017-05-25T09:44:19.428Z,23.78
2017-05-25T09:45:19.132Z,23.76
2017-05-25T09:46:19.437Z,23.88
2017-05-25T09:47:19.440Z,23.97
2017-05-25T09:48:19.138Z,24
2017-05-25T09:49:19.398Z,24.06
2017-05-25T09:50:19.447Z,24.16
2017-05-25T09:51:19.149Z,24.22
2017-05-25T09:52:19.154Z,24.32
2017-05-25T09:53:19.157Z,24.35
2017-05-25T09:54:19.763Z,24.53
2017-05-25T09:55:19.157Z,24.52
2017-05-25T09:56:19.479Z,24.64
2017-05-25T09:57:19.529Z,24.77
2017-05-25T09:58:19.473Z,24.88
2017-05-25T09:59:19.424Z,24.99
2017-05-25T10:00:19.481Z,24.98
2017-05-25T10:01:19.483Z,25
2017-05-25T10:02:19.488Z,24.95
2017-05-25T10:03:19.494Z,24.83
2017-05-25T10:04:19.747Z,24.95
2017-05-25T10:05:19.499Z,24.95
2017-05-25T10:06:19.505Z,25.05
2017-05-25T10:07:19.504Z,25.21
2017-05-25T10:08:19.509Z,25.27
2017-05-25T10:09:19.769Z,25.27
2017-05-25T10:10:19.518Z,25.51
2017-05-25T10:11:19.536Z,25.55
2017-05-25T10:12:19.525Z,25.61
2017-05-25T10:13:19.530Z,25.6
2017-05-25T10:14:19.836Z,25.61
2017-05-25T10:15:19.237Z,25.57
2017-05-25T10:16:19.240Z,25.7
2017-05-25T10:17:19.550Z,25.62
2017-05-25T10:18:19.249Z,25.61
2017-05-25T10:19:19.863Z,25.64
2017-05-25T10:20:19.261Z,25.6
2017-05-25T10:21:19.567Z,25.55
2017-05-25T10:22:19.570Z,25.5
2017-05-25T10:23:19.577Z,25.51
2017-05-25T10:24:19.833Z,25.52
2017-05-25T10:25:19.585Z,25.42
2017-05-25T10:26:19.587Z,25.4
2017-05-25T10:27:19.289Z,25.4
2017-05-25T10:28:19.597Z,25.54
2017-05-25T10:29:19.545Z,25.6
2017-05-25T10:30:19.307Z,25.67
2017-05-25T10:31:19.609Z,25.7
2017-05-25T10:32:19.611Z,25.7
2017-05-25T10:33:19.618Z,25.58
2017-05-25T10:34:19.924Z,25.57
2017-05-25T10:35:19.624Z,25.5
2017-05-25T10:36:19.635Z,25.43
2017-05-25T10:37:19.640Z,25.36
2017-05-25T10:38:19.339Z,25.3
2017-05-25T10:39:19.894Z,25.14
2017-05-25T10:40:19.652Z,25.17
2017-05-25T10:41:19.652Z,25.09
2017-05-25T10:42:19.657Z,25.15
2017-05-25T10:43:19.661Z,25.1
2017-05-25T10:44:19.968Z,25.25
2017-05-25T10:45:19.736Z,25.18
2017-05-25T10:46:19.675Z,25.21
2017-05-25T10:47:19.677Z,25.35
2017-05-25T10:48:19.688Z,25.36
2017-05-25T10:49:19.950Z,25.38
2017-05-25T10:50:19.690Z,25.3
2017-05-25T10:51:19.697Z,25.38
2017-05-25T10:52:19.703Z,25.36
2017-05-25T10:53:19.707Z,25.33
2017-05-25T10:54:20.015Z,25.38
2017-05-25T10:55:19.716Z,25.54
2017-05-25T10:56:19.421Z,25.73
2017-05-25T10:57:19.727Z,25.73
2017-05-25T10:58:19.430Z,25.83
2017-05-25T10:59:19.986Z,25.79
2017-05-25T11:00:19.744Z,25.73
2017-05-25T11:01:19.447Z,25.72
2017-05-25T11:02:19.752Z,25.75
2017-05-25T11:03:19.760Z,25.76
2017-05-25T11:04:19.712Z,25.79
2017-05-25T11:05:19.769Z,25.94
2017-05-25T11:06:19.771Z,26.17
2017-05-25T11:07:19.477Z,26.25
2017-05-25T11:08:19.780Z,26.07
2017-05-25T11:09:20.037Z,25.8
2017-05-25T11:10:19.789Z,25.69
2017-05-25T11:11:19.801Z,25.62
2017-05-25T11:12:19.802Z,25.51
2017-05-25T11:13:19.807Z,25.55
2017-05-25T11:14:20.111Z,25.69
2017-05-25T11:15:19.817Z,25.64
2017-05-25T11:16:19.825Z,25.64
2017-05-25T11:17:19.826Z,25.61
2017-05-25T11:18:19.837Z,25.64
2017-05-25T11:19:20.089Z,25.58
2017-05-25T11:20:19.841Z,25.64
2017-05-25T11:21:19.853Z,25.64
2017-05-25T11:22:19.858Z,25.6
2017-05-25T11:23:19.859Z,25.6
2017-05-25T11:24:19.813Z,25.62
2017-05-25T11:25:19.868Z,25.61
2017-05-25T11:26:19.871Z,25.58
2017-05-25T11:27:19.875Z,25.46
2017-05-25T11:28:19.883Z,25.32
2017-05-25T11:29:20.187Z,25.32
2017-05-25T11:30:19.891Z,25.45
2017-05-25T11:31:19.893Z,25.46
2017-05-25T11:32:19.598Z,25.42
2017-05-25T11:33:19.913Z,25.32
2017-05-25T11:34:19.856Z,25.33
2017-05-25T11:35:19.611Z,25.28
2017-05-25T11:36:19.921Z,25.42
2017-05-25T11:37:19.927Z,25.42
2017-05-25T11:38:19.627Z,25.46
2017-05-25T11:39:19.881Z,25.58
2017-05-25T11:40:19.635Z,25.61
2017-05-25T11:41:19.639Z,25.47
2017-05-25T11:42:19.646Z,25.18
2017-05-25T11:43:19.650Z,25.17
2017-05-25T11:44:19.955Z,24.95
2017-05-25T11:45:19.658Z,24.71
2017-05-25T11:46:19.664Z,24.67
2017-05-25T11:47:19.667Z,24.65
2017-05-25T11:48:19.678Z,24.73
2017-05-25T11:49:19.624Z,24.76
2017-05-25T11:50:19.682Z,24.73
2017-05-25T11:51:19.687Z,24.69
2017-05-25T11:52:19.690Z,24.73
2017-05-25T11:53:19.697Z,24.8
2017-05-25T11:54:19.695Z,24.9
2017-05-25T11:55:19.706Z,24.99
2017-05-25T11:56:19.707Z,25
2017-05-25T11:57:19.721Z,25
2017-05-25T11:58:19.719Z,24.95
2017-05-25T11:59:19.972Z,24.99
2017-05-25T12:00:19.722Z,24.99
2017-05-25T12:01:19.732Z,24.96
2017-05-25T12:02:20.042Z,24.96
2017-05-25T12:03:19.741Z,24.76
2017-05-25T12:04:19.991Z,24.8
2017-05-25T12:05:20.046Z,24.84
2017-05-25T12:06:20.053Z,24.8
2017-05-25T12:07:20.066Z,24.73
2017-05-25T12:08:20.059Z,24.61
2017-05-25T12:09:20.411Z,24.5
2017-05-25T12:10:20.067Z,24.5
2017-05-25T12:11:19.762Z,24.49
2017-05-25T12:12:20.073Z,24.53
2017-05-25T12:13:20.075Z,24.52
2017-05-25T12:14:20.334Z,24.53
2017-05-25T12:15:20.081Z,24.35
2017-05-25T12:16:20.083Z,24.31
2017-05-25T12:17:20.089Z,24.2
2017-05-25T12:18:19.790Z,24.24
2017-05-25T12:19:20.357Z,24.12
2017-05-25T12:20:20.097Z,24.12
2017-05-25T12:21:20.105Z,24.13
2017-05-25T12:22:20.105Z,24.15
2017-05-25T12:23:20.107Z,24.15
2017-05-25T12:24:20.171Z,24.08
2017-05-25T12:25:20.115Z,24.1
2017-05-25T12:26:20.122Z,24.15
2017-05-25T12:27:20.121Z,24.21
2017-05-25T12:28:20.130Z,24.28
2017-05-25T12:29:20.380Z,24.18
2017-05-25T12:30:20.130Z,24.35
2017-05-25T12:31:20.138Z,24.35
2017-05-25T12:32:20.139Z,24.39
2017-05-25T12:33:20.140Z,24.5
2017-05-25T12:34:20.398Z,24.55
2017-05-25T12:35:20.146Z,24.65
2017-05-25T12:36:20.153Z,24.58
2017-05-25T12:37:20.362Z,24.67
2017-05-25T12:38:20.157Z,24.62
2017-05-25T12:39:20.461Z,24.64
2017-05-25T12:40:20.162Z,24.62
2017-05-25T12:41:20.166Z,24.52
2017-05-25T12:42:20.175Z,24.62
2017-05-25T12:43:20.170Z,24.55
2017-05-25T12:44:20.432Z,24.45
2017-05-25T12:45:20.181Z,24.2
2017-05-25T12:46:20.182Z,24.18
2017-05-25T12:47:20.188Z,24.2
2017-05-25T12:48:20.191Z,24.24
2017-05-25T12:49:20.202Z,24.22
2017-05-25T12:50:20.196Z,24.3
2017-05-25T12:51:20.204Z,24.28
2017-05-25T12:52:20.208Z,24.42
2017-05-25T12:53:19.906Z,24.57
2017-05-25T12:54:20.463Z,24.55
2017-05-25T12:55:20.216Z,24.73
2017-05-25T12:56:19.914Z,24.8
2017-05-25T12:57:20.233Z,24.69
2017-05-25T12:58:20.227Z,24.8
2017-05-25T12:59:20.481Z,24.76
2017-05-25T13:00:20.230Z,24.84
2017-05-25T13:01:20.241Z,24.91
2017-05-25T13:02:20.239Z,25.06
2017-05-25T13:03:20.244Z,25.06
2017-05-25T13:04:20.549Z,25.06
2017-05-25T13:05:20.256Z,25.02
2017-05-25T13:06:19.955Z,24.99
2017-05-25T13:07:20.257Z,24.95
2017-05-25T13:08:20.265Z,25
2017-05-25T13:09:20.520Z,24.99
2017-05-25T13:10:20.269Z,24.98
2017-05-25T13:11:20.275Z,24.99
2017-05-25T13:12:19.974Z,24.95
2017-05-25T13:13:20.283Z,25.09
2017-05-25T13:14:20.536Z,25.18
2017-05-25T13:15:20.289Z,25.18
2017-05-25T13:16:19.993Z,25.2
2017-05-25T13:17:20.297Z,25.21
2017-05-25T13:18:20.302Z,25.24
2017-05-25T13:19:20.656Z,25.13